Time;durP1;ratioP1;P1;durP2;ratioP2;P2;SDS_P1;SDS_P2;PMS_P1;PMS_P2;Temp;Humidity;BMP_temperature;BMP_pressure;BME280_temperature;BME280_humidity;BME280_pressure;Samples;Min_cycle;Max_cycle;Signal;HPM_P1;HPM_P2
2021/04/28 00:00:35;;;;;;;7.10;3.47;;;;;;;7.35;43.66;100589.31;5337751;27;20028;-70
2021/04/28 00:03:09;;;;;;;7.22;3.38;;;;;;;7.28;44.13;100598.53;5339825;27;20054;-69
2021/04/28 00:05:40;;;;;;;6.70;3.95;;;;;;;7.18;44.21;100590.53;5335117;27;20035;-69
2021/04/28 00:08:12;;;;;;;7.78;3.80;;;;;;;7.28;44.68;100588.91;5337452;27;20038;-67
2021/04/28 00:10:43;;;;;;;8.13;4.15;;;;;;;7.12;44.76;100583.19;5341473;27;20098;-69
2021/04/28 00:13:17;;;;;;;11.10;4.15;;;;;;;7.04;45.41;100580.31;5340403;27;20039;-67
2021/04/28 00:15:49;;;;;;;5.57;3.78;;;;;;;7.07;44.93;100578.31;5338610;27;20023;-67
2021/04/28 00:18:21;;;;;;;6.70;3.83;;;;;;;6.98;45.48;100570.38;5338404;27;20479;-70
2021/04/28 00:20:52;;;;;;;5.68;3.97;;;;;;;7.09;45.79;100578.22;5340802;27;20050;-67
2021/04/28 00:23:24;;;;;;;6.18;3.70;;;;;;;6.86;45.83;100573.84;5339134;27;20390;-67
2021/04/28 00:25:55;;;;;;;7.25;3.90;;;;;;;6.86;45.56;100574.72;5338273;27;20027;-70
2021/04/28 00:28:26;;;;;;;8.55;4.38;;;;;;;6.89;46.28;100571.84;5338414;27;20019;-67
2021/04/28 00:30:57;;;;;;;5.72;4.20;;;;;;;6.80;45.96;100568.16;5320692;27;20498;-67
2021/04/28 00:33:29;;;;;;;6.00;4.90;;;;;;;6.63;47.12;100568.59;5338240;27;20026;-70
2021/04/28 00:36:00;;;;;;;10.40;4.78;;;;;;;6.57;46.72;100567.25;5339397;27;20037;-68
2021/04/28 00:38:31;;;;;;;6.32;4.18;;;;;;;6.56;46.25;100565.59;5338000;27;20023;-67
2021/04/28 00:41:08;;;;;;;10.00;4.70;;;;;;;6.55;46.60;100563.09;5339920;27;20026;-70
2021/04/28 00:43:39;;;;;;;7.60;3.72;;;;;;;6.45;47.20;100562.94;5340800;27;20038;-69
2021/04/28 00:46:11;;;;;;;6.55;4.05;;;;;;;6.48;47.13;100557.50;5337594;27;20027;-70
2021/04/28 00:48:42;;;;;;;6.05;4.03;;;;;;;6.44;47.46;100566.47;5336411;27;20199;-67
2021/04/28 00:51:13;;;;;;;8.70;4.10;;;;;;;6.53;48.06;100559.78;5338890;27;20024;-67
2021/04/28 00:53:46;;;;;;;6.55;4.28;;;;;;;6.46;47.79;100551.56;5338499;27;20100;-68
2021/04/28 00:56:17;;;;;;;8.75;4.38;;;;;;;6.37;47.38;100554.03;5337080;27;20027;-69
2021/04/28 00:58:49;;;;;;;9.85;4.55;;;;;;;6.40;47.82;100554.59;5340152;27;20087;-69
2021/04/28 01:01:20;;;;;;;5.10;3.92;;;;;;;6.32;47.79;100547.34;5337163;27;20072;-67
2021/04/28 01:03:52;;;;;;;6.63;3.97;;;;;;;6.38;48.11;100545.28;5336692;27;20031;-69
2021/04/28 01:06:23;;;;;;;9.73;4.10;;;;;;;6.31;47.22;100545.69;5339149;27;20039;-70
2021/04/28 01:08:55;;;;;;;7.80;4.60;;;;;;;6.23;47.75;100537.63;5339893;27;20023;-67
2021/04/28 01:11:27;;;;;;;10.48;4.95;;;;;;;6.16;48.25;100531.19;5337771;27;20038;-68
2021/04/28 01:14:01;;;;;;;6.50;4.32;;;;;;;6.13;48.69;100531.41;5337395;27;20418;-67
2021/04/28 01:16:33;;;;;;;;;;;;;;;6.42;46.00;100531.91;5339509;27;20472;-67
2021/04/28 01:19:06;;;;;;;8.35;4.25;;;;;;;6.11;48.86;100535.06;5339406;27;19918;-68
2021/04/28 01:21:37;;;;;;;6.75;4.28;;;;;;;6.05;49.24;100537.16;5336824;27;20030;-67
2021/04/28 01:24:09;;;;;;;7.68;4.68;;;;;;;6.05;48.83;100533.72;5336733;27;20035;-68
2021/04/28 01:26:43;;;;;;;7.80;4.68;;;;;;;6.02;49.20;100528.72;5337609;27;20035;-67
2021/04/28 01:29:18;;;;;;;6.60;4.20;;;;;;;5.99;49.27;100527.19;5338515;27;20019;-67
2021/04/28 01:31:51;;;;;;;6.88;4.65;;;;;;;5.99;49.47;100522.00;5326604;27;20480;-67
2021/04/28 01:34:25;;;;;;;7.25;4.38;;;;;;;5.94;48.94;100518.88;5339298;27;21296;-68
2021/04/28 01:36:57;;;;;;;6.25;4.53;;;;;;;6.02;48.94;100518.31;5339092;27;20027;-68
2021/04/28 01:39:30;;;;;;;8.40;5.10;;;;;;;5.93;49.73;100514.63;5338045;27;20030;-70
2021/04/28 01:42:01;;;;;;;8.73;5.38;;;;;;;5.86;49.70;100519.38;5337117;27;20038;-68
2021/04/28 01:44:33;;;;;;;8.52;4.93;;;;;;;5.74;50.88;100522.84;5336704;27;20027;-68
2021/04/28 01:47:05;;;;;;;9.82;4.25;;;;;;;5.79;50.47;100522.50;5337366;27;20033;-68
2021/04/28 01:49:38;;;;;;;8.05;4.55;;;;;;;5.85;50.85;100517.72;5337460;27;20110;-68
2021/04/28 01:52:09;;;;;;;5.53;4.40;;;;;;;5.75;50.86;100521.06;5318864;27;20047;-67
2021/04/28 01:54:41;;;;;;;9.85;4.75;;;;;;;5.69;50.25;100518.91;5338034;27;20685;-68
2021/04/28 01:57:13;;;;;;;6.80;4.22;;;;;;;5.68;50.88;100518.06;5337545;27;20107;-68
2021/04/28 01:59:44;;;;;;;6.35;3.90;;;;;;;5.77;49.53;100519.22;5338046;27;20030;-69
2021/04/28 02:02:17;;;;;;;9.32;4.25;;;;;;;5.73;49.90;100507.38;5332474;27;20057;-70
2021/04/28 02:04:49;;;;;;;8.55;4.45;;;;;;;5.73;49.67;100510.78;5337946;27;20031;-68
2021/04/28 02:07:20;;;;;;;7.38;4.35;;;;;;;5.77;50.42;100508.81;5336895;27;20022;-69
2021/04/28 02:09:51;;;;;;;8.15;4.85;;;;;;;5.68;50.64;100506.84;5328597;28;20035;-68
2021/04/28 02:12:23;;;;;;;8.45;4.47;;;;;;;5.67;50.57;100507.78;5308747;28;20039;-68
2021/04/28 02:14:55;;;;;;;8.25;4.60;;;;;;;5.60;50.53;100500.41;5315140;27;20047;-68
2021/04/28 02:17:29;;;;;;;8.25;4.97;;;;;;;5.65;50.67;100496.69;5291513;28;20023;-67
2021/04/28 02:20:01;;;;;;;11.65;4.65;;;;;;;5.60;51.02;100499.56;5316213;28;20034;-68
2021/04/28 02:22:34;;;;;;;9.25;4.85;;;;;;;5.52;50.84;100494.91;5306170;28;20160;-68
2021/04/28 02:25:06;;;;;;;8.75;4.75;;;;;;;5.52;50.47;100494.91;5314987;28;20038;-68
2021/04/28 02:27:39;;;;;;;7.53;4.65;;;;;;;5.53;51.29;100490.53;5318142;28;20032;-69
2021/04/28 02:30:13;;;;;;;7.20;4.90;;;;;;;5.53;50.33;100485.34;5315631;28;20106;-68
2021/04/28 02:32:45;;;;;;;9.55;4.75;;;;;;;5.44;51.72;100489.41;5319063;28;20081;-69
2021/04/28 02:35:18;;;;;;;6.95;4.78;;;;;;;5.42;51.85;100480.91;5321457;28;20681;-69
2021/04/28 02:37:59;;;;;;;7.95;4.97;;;;;;;5.45;51.27;100491.06;5314557;28;20084;-67
2021/04/28 02:40:32;;;;;;;8.82;5.25;;;;;;;5.44;51.23;100478.19;5311301;28;20481;-68
2021/04/28 02:43:03;;;;;;;6.28;4.57;;;;;;;5.41;52.22;100487.03;5319245;28;20112;-68
2021/04/28 02:45:36;;;;;;;7.60;4.65;;;;;;;5.48;51.46;100482.25;5316116;28;20054;-67
2021/04/28 02:48:07;;;;;;;9.95;5.18;;;;;;;5.43;51.86;100479.16;5322021;28;20015;-68
2021/04/28 02:50:39;;;;;;;10.57;4.95;;;;;;;5.46;51.47;100478.94;5311488;28;20036;-69
2021/04/28 02:53:14;;;;;;;7.43;4.47;;;;;;;5.52;51.70;100474.13;5315308;28;20028;-68
2021/04/28 02:55:45;;;;;;;7.35;5.13;;;;;;;5.52;51.88;100475.91;5319680;28;20173;-68
2021/04/28 02:58:17;;;;;;;9.07;4.90;;;;;;;5.32;51.77;100472.91;5313994;28;20023;-68
2021/04/28 03:00:50;;;;;;;6.95;5.03;;;;;;;5.27;51.94;100468.97;5317130;28;20086;-68
2021/04/28 03:03:21;;;;;;;;;;;;;;;5.51;50.60;100474.25;5318339;28;20031;-68
2021/04/28 03:05:53;;;;;;;7.03;4.70;;;;;;;5.21;51.77;100466.78;5315573;28;19911;-70
2021/04/28 03:08:24;;;;;;;7.57;5.15;;;;;;;5.16;52.50;100471.47;5321376;28;20257;-70
2021/04/28 03:10:58;;;;;;;12.05;5.45;;;;;;;5.22;52.94;100469.28;5310984;28;20079;-67
2021/04/28 03:13:29;;;;;;;7.28;4.88;;;;;;;5.20;53.16;100457.34;5322337;27;21137;-69
2021/04/28 03:16:00;;;;;;;8.10;6.00;;;;;;;5.12;53.10;100461.31;5341871;27;20027;-70
2021/04/28 03:18:32;;;;;;;7.97;5.40;;;;;;;5.00;53.95;100462.13;5340563;27;20023;-68
2021/04/28 03:21:06;;;;;;;8.27;5.13;;;;;;;4.85;54.04;100457.97;5341836;27;20092;-68
2021/04/28 03:23:37;;;;;;;9.55;5.63;;;;;;;4.86;53.86;100462.22;5342064;27;20681;-68
2021/04/28 03:26:10;;;;;;;9.02;5.63;;;;;;;4.93;53.55;100458.28;5341534;27;20035;-67
2021/04/28 03:28:42;;;;;;;11.80;6.30;;;;;;;4.85;54.29;100458.81;5340096;27;20042;-66
2021/04/28 03:31:13;;;;;;;10.27;6.00;;;;;;;4.77;54.12;100461.09;5340830;27;20023;-68
2021/04/28 03:33:44;;;;;;;8.73;5.47;;;;;;;4.75;54.63;100462.94;5341916;27;20084;-66
2021/04/28 03:36:15;;;;;;;10.45;6.43;;;;;;;4.70;54.98;100459.84;5339811;27;20663;-66
2021/04/28 03:38:47;;;;;;;9.70;5.53;;;;;;;4.63;55.19;100455.97;5341370;27;20027;-67
2021/04/28 03:41:18;;;;;;;7.88;5.53;;;;;;;4.59;55.11;100463.13;5322505;27;20473;-66
2021/04/28 03:43:49;;;;;;;10.68;5.72;;;;;;;4.57;55.83;100457.19;5338878;27;20159;-67
2021/04/28 03:46:21;;;;;;;8.10;6.05;;;;;;;4.52;55.28;100455.84;5340036;27;20110;-65
2021/04/28 03:48:52;;;;;;;7.88;5.88;;;;;;;4.51;55.56;100459.34;5342079;27;20027;-66
2021/04/28 03:51:24;;;;;;;12.80;6.05;;;;;;;4.48;56.19;100459.59;5339785;27;20063;-66
2021/04/28 03:53:56;;;;;;;10.17;6.20;;;;;;;4.46;56.59;100451.06;5340563;27;21103;-66
2021/04/28 03:56:27;;;;;;;15.50;6.38;;;;;;;4.42;55.77;100465.16;5340283;27;20079;-66
2021/04/28 03:58:58;;;;;;;11.13;6.68;;;;;;;4.39;55.71;100458.41;5341252;27;20035;-66
2021/04/28 04:01:30;;;;;;;12.05;6.70;;;;;;;4.37;56.85;100462.88;5330933;27;20050;-67
2021/04/28 04:04:01;;;;;;;11.05;6.32;;;;;;;4.29;56.84;100454.75;5329974;27;20242;-66
2021/04/28 04:06:33;;;;;;;9.95;5.70;;;;;;;4.42;56.45;100470.34;5318180;27;20062;-66
2021/04/28 04:09:06;;;;;;;24.52;7.22;;;;;;;4.21;56.86;100463.03;5339730;27;20547;-66
2021/04/28 04:11:37;;;;;;;8.83;6.47;;;;;;;4.19;57.28;100462.28;5319427;27;20129;-65
2021/04/28 04:14:08;;;;;;;13.30;5.95;;;;;;;4.22;57.22;100466.47;5329863;27;20494;-66
2021/04/28 04:16:40;;;;;;;8.25;6.32;;;;;;;4.15;56.38;100463.41;5317028;28;20031;-66
2021/04/28 04:19:11;;;;;;;8.15;6.10;;;;;;;4.15;57.05;100463.41;5316074;28;20032;-66
2021/04/28 04:21:42;;;;;;;9.52;6.60;;;;;;;4.12;56.30;100463.59;5313830;28;20024;-66
2021/04/28 04:24:14;;;;;;;8.65;5.57;;;;;;;4.19;57.52;100459.69;5319625;28;20106;-66
2021/04/28 04:26:45;;;;;;;8.93;5.95;;;;;;;4.13;57.20;100458.34;5312422;28;20031;-66
2021/04/28 04:29:16;;;;;;;7.18;6.40;;;;;;;4.22;57.38;100463.88;5317681;28;20024;-67
2021/04/28 04:31:48;;;;;;;9.98;5.68;;;;;;;4.29;56.73;100459.94;5316753;28;20033;-66
2021/04/28 04:34:19;;;;;;;9.45;6.57;;;;;;;4.30;57.29;100461.59;5300564;28;20023;-66
2021/04/28 04:36:50;;;;;;;7.63;6.03;;;;;;;4.30;57.03;100461.59;5317937;28;20464;-68
2021/04/28 04:39:22;;;;;;;9.23;6.03;;;;;;;4.38;57.66;100464.53;5319126;28;20035;-66
2021/04/28 04:41:53;;;;;;;9.52;6.22;;;;;;;4.48;57.12;100463.00;5316920;28;20031;-66
2021/04/28 04:44:25;;;;;;;9.23;6.45;;;;;;;4.63;57.04;100467.19;5318522;28;20030;-66
2021/04/28 04:46:57;;;;;;;12.50;6.53;;;;;;;4.72;55.80;100457.94;5311659;28;20498;-66
2021/04/28 04:49:29;;;;;;;12.00;5.70;;;;;;;4.75;56.36;100459.53;5317855;28;20028;-66
2021/04/28 04:52:00;;;;;;;11.35;6.00;;;;;;;4.76;55.57;100453.38;5319029;28;20567;-66
2021/04/28 04:54:32;;;;;;;21.88;7.55;;;;;;;4.80;55.69;100457.44;5314890;28;20110;-66
2021/04/28 04:57:03;;;;;;;17.95;6.80;;;;;;;4.78;55.57;100451.53;5319322;28;20026;-66
2021/04/28 04:59:35;;;;;;;11.40;6.43;;;;;;;4.81;55.36;100448.72;5312959;28;20023;-66
2021/04/28 05:02:06;;;;;;;8.82;6.38;;;;;;;4.91;55.55;100444.56;5314193;28;20452;-65
2021/04/28 05:04:37;;;;;;;10.57;5.72;;;;;;;4.88;54.86;100443.00;5314009;28;20032;-66
2021/04/28 05:07:08;;;;;;;12.52;6.57;;;;;;;4.97;55.85;100441.56;5297978;28;20032;-66
2021/04/28 05:09:40;;;;;;;14.50;5.57;;;;;;;5.02;55.50;100449.88;5316854;28;20498;-66
2021/04/28 05:12:12;;;;;;;13.68;6.78;;;;;;;5.07;54.93;100455.56;5315583;28;20644;-66
2021/04/28 05:14:43;;;;;;;17.02;6.47;;;;;;;5.10;55.22;100447.56;5325106;27;20066;-66
2021/04/28 05:17:14;;;;;;;7.40;6.20;;;;;;;5.14;54.47;100443.00;5330173;27;20023;-66
2021/04/28 05:19:46;;;;;;;12.18;6.32;;;;;;;5.19;54.20;100446.13;5339187;27;20523;-66
2021/04/28 05:22:22;;;;;;;10.45;6.25;;;;;;;5.25;54.65;100450.06;5336315;27;20617;-66
2021/04/28 05:24:54;;;;;;;11.85;6.00;;;;;;;5.23;54.43;100452.78;5338057;27;20045;-68
2021/04/28 05:27:25;;;;;;;14.00;6.80;;;;;;;5.33;54.42;100447.75;5339832;27;20038;-68
2021/04/28 05:29:57;;;;;;;8.07;5.70;;;;;;;5.25;54.28;100456.09;5337076;27;20395;-69
2021/04/28 05:32:28;;;;;;;9.45;6.40;;;;;;;5.33;53.91;100464.19;5337076;27;20769;-68
2021/04/28 05:34:59;;;;;;;10.50;6.05;;;;;;;5.37;54.88;100459.59;5337723;27;20105;-68
2021/04/28 05:37:30;;;;;;;11.45;7.10;;;;;;;5.33;54.76;100458.97;5336062;27;20034;-68
2021/04/28 05:40:04;;;;;;;11.38;6.20;;;;;;;5.35;54.47;100456.28;5327621;27;20313;-68
2021/04/28 05:42:36;;;;;;;10.35;6.47;;;;;;;5.32;54.27;100466.91;5337269;27;20019;-69
2021/04/28 05:45:10;;;;;;;12.82;6.82;;;;;;;5.32;54.22;100462.53;5336300;27;20027;-68
2021/04/28 05:47:42;;;;;;;10.50;6.82;;;;;;;5.40;54.99;100467.19;5336287;27;20022;-68
2021/04/28 05:50:16;;;;;;;12.23;6.68;;;;;;;5.40;54.23;100455.97;5338995;27;20086;-68
2021/04/28 05:52:47;;;;;;;15.70;7.50;;;;;;;5.35;54.58;100451.09;5336364;27;20095;-68
2021/04/28 05:55:19;;;;;;;10.82;7.22;;;;;;;5.46;54.86;100445.16;5311234;27;20022;-66
2021/04/28 05:57:50;;;;;;;10.05;7.22;;;;;;;5.51;54.45;100454.28;5326815;27;20030;-67
2021/04/28 06:00:22;;;;;;;10.98;7.57;;;;;;;5.54;54.22;100456.66;5310883;27;20062;-66
2021/04/28 06:02:53;;;;;;;9.98;6.78;;;;;;;5.62;54.53;100453.53;5337846;27;20026;-66
2021/04/28 06:05:25;;;;;;;10.65;7.22;;;;;;;5.72;53.79;100462.34;5327015;27;20497;-66
2021/04/28 06:07:56;;;;;;;13.05;7.38;;;;;;;5.81;53.80;100447.88;5316359;27;20038;-66
2021/04/28 06:10:27;;;;;;;11.05;6.95;;;;;;;5.92;54.28;100445.38;5338688;27;20430;-67
2021/04/28 06:12:58;;;;;;;15.13;7.85;;;;;;;6.03;53.70;100442.81;5336611;27;20046;-67
2021/04/28 06:15:30;;;;;;;11.85;7.22;;;;;;;6.15;53.37;100440.28;5332208;28;20060;-67
2021/04/28 06:18:01;;;;;;;10.77;7.65;;;;;;;6.29;53.08;100437.50;5316430;28;20019;-67
2021/04/28 06:20:34;;;;;;;21.08;8.05;;;;;;;6.39;53.19;100437.63;5332680;28;20074;-67
2021/04/28 06:23:06;;;;;;;11.07;7.20;;;;;;;6.43;52.84;100444.28;5325818;27;20441;-67
2021/04/28 06:25:37;;;;;;;13.48;8.43;;;;;;;6.44;52.67;100431.16;5337404;28;20118;-67
2021/04/28 06:28:08;;;;;;;16.45;7.75;;;;;;;6.49;52.81;100444.66;5335523;28;20023;-67
2021/04/28 06:30:40;;;;;;;17.65;7.72;;;;;;;6.56;52.77;100443.25;5337527;28;20374;-67
2021/04/28 06:33:11;;;;;;;10.90;7.32;;;;;;;6.60;52.45;100440.44;5338067;27;20027;-67
2021/04/28 06:35:42;;;;;;;16.60;8.43;;;;;;;6.72;52.47;100445.53;5336508;28;20392;-67
2021/04/28 06:38:13;;;;;;;16.38;8.27;;;;;;;6.86;52.53;100449.72;5335317;28;20674;-67
2021/04/28 06:40:45;;;;;;;9.45;7.32;;;;;;;7.01;51.81;100451.16;5316988;28;20034;-67
2021/04/28 06:43:16;;;;;;;13.98;7.43;;;;;;;7.18;51.68;100446.44;5332054;28;20144;-67
2021/04/28 06:45:47;;;;;;;13.18;7.68;;;;;;;7.33;51.96;100440.03;5310622;28;20023;-67
2021/04/28 06:48:19;;;;;;;15.85;8.32;;;;;;;7.40;51.23;100443.00;5335318;28;20039;-66
2021/04/28 06:50:51;;;;;;;13.93;8.02;;;;;;;7.57;51.79;100432.88;5335737;28;20024;-66
2021/04/28 06:53:22;;;;;;;17.83;8.53;;;;;;;7.78;51.68;100429.56;5333420;27;20407;-67
2021/04/28 06:55:55;;;;;;;13.27;8.57;;;;;;;7.93;51.03;100417.06;5333946;28;20023;-67
2021/04/28 06:58:28;;;;;;;15.07;7.40;;;;;;;8.19;50.90;100428.00;5327857;28;20087;-67
2021/04/28 07:01:00;;;;;;;11.60;7.82;;;;;;;8.38;49.22;100432.59;5315116;27;20119;-68
2021/04/28 07:03:31;;;;;;;12.82;8.48;;;;;;;8.50;50.28;100427.16;5309784;28;20618;-67
2021/04/28 07:06:03;;;;;;;11.95;8.50;;;;;;;8.52;48.84;100440.06;5329915;28;20031;-66
2021/04/28 07:08:34;;;;;;;19.75;8.45;;;;;;;8.59;49.71;100429.97;5331118;28;20524;-67
2021/04/28 07:11:07;;;;;;;18.38;8.95;;;;;;;8.72;49.25;100436.66;5335539;28;20391;-66
2021/04/28 07:13:38;;;;;;;12.35;8.52;;;;;;;8.84;48.59;100436.59;5316956;28;20055;-67
2021/04/28 07:16:09;;;;;;;15.00;8.32;;;;;;;9.00;48.13;100432.53;5333026;28;20057;-67
2021/04/28 07:18:41;;;;;;;13.40;8.18;;;;;;;9.33;48.27;100425.41;5336968;27;20645;-67
2021/04/28 07:21:12;;;;;;;13.10;9.02;;;;;;;9.59;48.57;100425.75;5330483;27;20035;-67
2021/04/28 07:23:44;;;;;;;19.55;8.98;;;;;;;9.78;47.37;100424.97;5320862;27;20502;-68
2021/04/28 07:26:15;;;;;;;14.13;8.77;;;;;;;9.71;46.96;100431.69;5334353;27;20369;-67
2021/04/28 07:28:49;;;;;;;12.02;8.27;;;;;;;9.88;47.18;100433.63;5323566;27;20015;-67
2021/04/28 07:31:21;;;;;;;15.38;8.00;;;;;;;9.88;46.52;100425.78;5334791;27;20491;-66
2021/04/28 07:33:52;;;;;;;12.63;7.45;;;;;;;9.91;46.74;100424.69;5325433;27;20031;-67
2021/04/28 07:36:24;;;;;;;14.77;8.40;;;;;;;10.16;46.76;100424.19;5337203;27;20022;-67
2021/04/28 07:38:57;;;;;;;16.42;8.07;;;;;;;10.33;46.21;100420.06;5336690;27;20048;-66
2021/04/28 07:41:28;;;;;;;16.20;8.48;;;;;;;10.38;46.59;100412.63;5332750;27;20026;-66
2021/04/28 07:44:00;;;;;;;13.02;8.55;;;;;;;10.52;46.01;100413.16;5331925;27;20031;-67
2021/04/28 07:46:33;;;;;;;19.40;8.25;;;;;;;10.54;45.44;100412.06;5316997;27;20606;-67
2021/04/28 07:49:04;;;;;;;13.50;8.45;;;;;;;10.71;45.44;100405.25;5326283;27;20155;-67
2021/04/28 07:51:36;;;;;;;15.68;8.30;;;;;;;10.88;45.20;100408.94;5332507;27;20124;-67
2021/04/28 07:54:07;;;;;;;14.60;8.95;;;;;;;10.88;45.04;100409.75;5334583;27;20854;-68
2021/04/28 07:56:39;;;;;;;19.35;9.27;;;;;;;10.92;45.26;100403.25;5328971;27;20290;-67
2021/04/28 07:59:11;;;;;;;17.10;8.70;;;;;;;10.98;44.40;100401.03;5321812;27;20028;-66
2021/04/28 08:01:43;;;;;;;19.67;8.50;;;;;;;11.20;44.38;100406.72;5338417;27;20110;-66
2021/04/28 08:04:15;;;;;;;21.42;9.50;;;;;;;11.37;44.50;100399.91;5334620;27;20030;-67
2021/04/28 08:06:47;;;;;;;14.63;8.77;;;;;;;11.69;43.90;100398.59;5338569;27;20031;-67
2021/04/28 08:09:19;;;;;;;15.60;9.20;;;;;;;11.85;44.40;100392.72;5337294;27;20027;-66
2021/04/28 08:11:50;;;;;;;13.30;8.55;;;;;;;12.01;42.73;100392.03;5333535;27;20671;-68
2021/04/28 08:14:21;;;;;;;15.02;8.63;;;;;;;12.22;43.02;100392.56;5332576;27;20047;-68
2021/04/28 08:16:52;;;;;;;11.90;8.35;;;;;;;12.27;41.80;100392.94;5333662;27;20030;-68
2021/04/28 08:19:25;;;;;;;13.18;8.18;;;;;;;12.45;41.52;100386.84;5338101;27;20064;-67
2021/04/28 08:21:56;;;;;;;13.07;8.82;;;;;;;12.59;41.48;100381.03;5321621;27;20561;-68
2021/04/28 08:24:28;;;;;;;16.23;8.95;;;;;;;12.81;40.71;100391.03;5327992;27;20039;-66
2021/04/28 08:26:59;;;;;;;12.88;8.85;;;;;;;13.04;40.99;100386.03;5336222;27;20027;-68
2021/04/28 08:29:31;;;;;;;12.98;8.93;;;;;;;13.18;39.70;100381.97;5323824;27;20088;-67
2021/04/28 08:32:03;;;;;;;17.52;8.98;;;;;;;13.27;38.85;100373.19;5329354;27;20018;-67
2021/04/28 08:34:34;;;;;;;13.88;8.27;;;;;;;13.42;40.66;100359.41;5320009;27;20033;-68
2021/04/28 08:37:06;;;;;;;14.82;9.00;;;;;;;13.54;38.95;100373.91;5336983;27;20027;-66
2021/04/28 08:39:38;;;;;;;13.88;8.90;;;;;;;13.74;38.66;100361.28;5334340;27;20031;-68
2021/04/28 08:42:10;;;;;;;12.27;8.70;;;;;;;13.73;38.16;100360.47;5334832;27;20089;-66
2021/04/28 08:44:42;;;;;;;16.60;9.43;;;;;;;13.96;38.47;100363.28;5310854;27;20080;-68
2021/04/28 08:47:14;;;;;;;14.02;8.88;;;;;;;14.15;38.84;100371.84;5327976;27;20402;-67
2021/04/28 08:49:45;;;;;;;11.07;8.63;;;;;;;14.17;37.85;100365.44;5338028;27;20031;-67
2021/04/28 08:52:16;;;;;;;11.32;8.48;;;;;;;14.42;37.80;100365.41;5332147;27;20031;-67
2021/04/28 08:54:48;;;;;;;12.13;8.63;;;;;;;14.54;37.50;100362.28;5324866;27;20028;-68
2021/04/28 08:57:20;;;;;;;12.25;9.18;;;;;;;14.60;37.00;100364.25;5328906;27;20512;-67
2021/04/28 08:59:53;;;;;;;16.95;9.25;;;;;;;14.55;36.50;100363.13;5329633;27;20023;-66
2021/04/28 09:02:28;;;;;;;14.10;8.70;;;;;;;14.47;36.46;100365.72;5336772;27;20034;-67
2021/04/28 09:05:10;;;;;;;13.43;8.70;;;;;;;14.88;37.25;100366.47;5331400;27;20078;-67
2021/04/28 09:07:43;;;;;;;11.43;8.55;;;;;;;14.80;36.26;100354.16;5332496;27;20031;-68
2021/04/28 09:10:22;;;;;;;15.02;9.15;;;;;;;14.96;36.47;100345.34;5330304;27;20015;-69
2021/04/28 09:13:00;;;;;;;11.75;9.07;;;;;;;15.16;36.29;100343.16;5330575;27;20019;-67
2021/04/28 09:15:32;;;;;;;16.08;8.88;;;;;;;15.21;35.92;100350.53;5331409;27;20496;-67
2021/04/28 09:18:07;;;;;;;13.23;8.95;;;;;;;15.21;36.20;100348.72;5329527;27;20134;-67
2021/04/28 09:20:48;;;;;;;19.25;9.05;;;;;;;15.32;35.96;100344.88;5330503;27;20062;-67
2021/04/28 09:23:26;;;;;;;15.25;9.68;;;;;;;15.45;36.63;100341.66;5320769;27;20055;-68
2021/04/28 09:25:58;;;;;;;15.27;9.15;;;;;;;15.53;35.81;100331.91;5331285;27;20019;-67
2021/04/28 09:28:34;;;;;;;15.20;9.25;;;;;;;15.75;35.44;100329.44;5328278;27;20447;-67
2021/04/28 09:31:05;;;;;;;16.00;9.50;;;;;;;15.97;35.50;100338.38;5331975;27;20027;-67
2021/04/28 09:33:43;;;;;;;13.83;9.67;;;;;;;15.91;36.00;100333.78;5318718;27;20030;-68
2021/04/28 09:36:16;;;;;;;15.65;9.23;;;;;;;16.03;35.74;100330.56;5325404;27;20965;-67
2021/04/28 09:38:53;;;;;;;12.73;8.90;;;;;;;16.06;34.91;100332.00;5330867;27;20438;-68
2021/04/28 09:41:52;;;;;;;15.85;10.05;;;;;;;16.22;35.48;100323.94;5330299;27;20019;-68
2021/04/28 09:44:32;;;;;;;12.40;8.93;;;;;;;16.15;35.15;100317.72;5328897;27;20072;-67
2021/04/28 09:47:16;;;;;;;15.88;10.88;;;;;;;16.19;34.64;100316.38;5331343;27;20027;-68
2021/04/28 09:49:55;;;;;;;13.85;10.10;;;;;;;16.34;34.04;100323.50;5333583;27;20392;-66
2021/04/28 09:52:29;;;;;;;18.73;10.30;;;;;;;16.25;34.71;100318.31;5336374;27;20122;-66
2021/04/28 09:55:08;;;;;;;19.67;11.02;;;;;;;16.35;34.63;100311.94;5335350;27;20182;-68
2021/04/28 09:57:43;;;;;;;17.05;10.07;;;;;;;16.35;33.86;100317.22;5330635;27;20034;-67
2021/04/28 10:00:23;;;;;;;14.10;10.15;;;;;;;16.53;34.68;100315.88;5326542;27;20040;-67
2021/04/28 10:02:57;;;;;;;13.63;9.65;;;;;;;16.45;33.79;100307.22;5332635;27;20476;-70
2021/04/28 10:05:33;;;;;;;14.88;10.57;;;;;;;16.60;34.35;100308.03;5310631;28;20027;-69
2021/04/28 10:08:21;;;;;;;14.95;10.32;;;;;;;16.68;34.81;100300.00;5332106;27;20019;-70
2021/04/28 10:10:52;;;;;;;17.20;11.73;;;;;;;16.82;33.73;100300.19;5323960;27;20440;-67
2021/04/28 10:16:39;;;;;;;17.38;10.48;;;;;;;17.21;33.36;100297.22;5262777;28;20143;-71
2021/04/28 10:19:11;;;;;;;16.45;10.52;;;;;;;17.51;33.65;100290.00;5271114;28;20033;-68
2021/04/28 10:21:45;;;;;;;16.90;10.63;;;;;;;17.60;32.46;100285.38;5274570;28;20107;-68
2021/04/28 10:24:18;;;;;;;18.27;11.10;;;;;;;17.68;32.57;100290.56;5272702;28;20020;-69
2021/04/28 10:26:50;;;;;;;11.88;10.23;;;;;;;17.78;32.10;100282.31;5273268;28;20033;-68
2021/04/28 10:29:22;;;;;;;15.98;10.88;;;;;;;17.95;32.18;100276.53;5272396;28;20499;-68
2021/04/28 10:31:54;;;;;;;15.40;10.47;;;;;;;18.24;32.05;100270.22;5274622;28;20338;-69
2021/04/28 10:34:53;;;;;;;16.73;10.85;;;;;;;18.34;31.50;100271.72;5261179;28;20032;-69
2021/04/28 10:37:30;;;;;;;14.77;10.57;;;;;;;18.26;29.22;100272.72;5274530;28;20020;-69
2021/04/28 10:40:09;;;;;;;13.13;9.05;;;;;;;18.28;29.57;100270.66;5273879;28;20108;-68
2021/04/28 10:42:42;;;;;;;13.25;10.25;;;;;;;18.29;29.41;100261.69;5271886;28;20664;-69
2021/04/28 10:45:22;;;;;;;16.10;11.23;;;;;;;18.39;30.31;100267.47;5270984;28;20048;-69
2021/04/28 10:47:54;;;;;;;13.57;10.15;;;;;;;18.30;28.94;100259.88;5273843;28;20028;-69
2021/04/28 10:50:38;;;;;;;13.73;10.85;;;;;;;18.51;29.79;100262.44;5272974;28;20054;-69
2021/04/28 10:53:15;;;;;;;14.75;11.20;;;;;;;18.40;28.69;100260.31;5275747;28;20473;-69
2021/04/28 10:56:07;;;;;;;12.73;11.07;;;;;;;18.39;29.88;100256.84;5276822;28;20048;-69
2021/04/28 10:58:42;;;;;;;13.75;10.57;;;;;;;18.34;29.20;100253.16;5272996;28;20420;-70
2021/04/28 11:01:20;;;;;;;15.20;11.18;;;;;;;18.48;29.47;100262.81;5277064;28;20086;-69
2021/04/28 11:03:53;;;;;;;12.02;10.73;;;;;;;18.43;29.28;100254.63;5276104;28;20028;-69
2021/04/28 11:06:28;;;;;;;18.52;10.88;;;;;;;18.55;29.64;100252.25;5277410;28;20473;-69
2021/04/28 11:09:06;;;;;;;14.13;10.95;;;;;;;18.60;28.68;100242.69;5277428;28;20473;-69
2021/04/28 11:11:41;;;;;;;11.80;10.57;;;;;;;18.70;28.39;100243.16;5274728;28;20039;-69
2021/04/28 11:14:23;;;;;;;15.55;11.50;;;;;;;18.92;28.50;100243.03;5273361;28;20039;-69
2021/04/28 11:16:54;;;;;;;15.70;11.63;;;;;;;18.99;28.42;100235.94;5276750;28;20028;-69
2021/04/28 11:19:28;;;;;;;24.13;12.23;;;;;;;19.32;27.70;100233.34;5266019;28;20058;-69
2021/04/28 11:22:17;;;;;;;22.02;12.88;;;;;;;19.36;28.00;100233.75;5276623;28;20115;-69
2021/04/28 11:25:10;;;;;;;16.20;11.30;;;;;;;19.31;27.35;100225.56;5277038;28;20079;-68
2021/04/28 11:27:58;;;;;;;16.98;11.43;;;;;;;19.55;28.41;100226.84;5276779;28;20046;-68
2021/04/28 11:30:31;;;;;;;18.95;12.60;;;;;;;19.69;26.78;100229.28;5275451;28;20326;-68
2021/04/28 11:33:11;;;;;;;17.67;11.70;;;;;;;19.92;27.65;100222.75;5275916;28;20032;-69
2021/04/28 11:35:45;;;;;;;18.73;12.45;;;;;;;19.94;26.90;100218.03;5276395;28;20051;-69
2021/04/28 11:38:17;;;;;;;16.27;11.95;;;;;;;19.90;26.71;100217.63;5276278;28;20021;-69
2021/04/28 11:41:08;;;;;;;13.82;11.38;;;;;;;20.24;26.92;100218.41;5275610;28;20077;-69
2021/04/28 11:43:47;;;;;;;15.38;12.25;;;;;;;20.15;25.75;100214.31;5273467;28;20524;-69
2021/04/28 11:46:19;;;;;;;17.38;12.73;;;;;;;20.09;25.46;100210.66;5277258;28;20033;-69
2021/04/28 11:48:53;;;;;;;17.20;11.55;;;;;;;19.86;26.75;100192.50;5276933;28;20020;-69
2021/04/28 11:51:27;;;;;;;15.00;12.23;;;;;;;19.98;27.00;100205.97;5276085;28;20032;-67
2021/04/28 11:54:00;;;;;;;14.60;12.48;;;;;;;20.07;26.38;100199.38;5277948;28;20391;-67